• Join FlightAware (Why Join?)
  • Login
  • US Flag 
Rudolph Flight #1: Arrived! 
07:29AM EST


 

Airport Tracker/Info


-or-


 

Live Flight TrackerFlight Track Log ✈ GLA154 ✈ 28-Apr-2013 ✈ KIGM - KLAX

Flight Track Log - Related Links

Times and Time Zones

All times are in EDT time to prevent confusion due to time zone crossing. See the GLA154 flight status page for this flight to view local times or setup timezone preferences in your user account.

Time Position Orientation Groundspeed Altitude Reporting Facility
EDT Latitude Longitude Course Direction KTS MPH feet Rate Location/Type
10:40AM 35.2106 -113.9958 210° Southwest 184 212 8,500  Level Los Angeles Center
10:41AM 35.1689 -114.0383 220° Southwest 185 213 10,000 1,380 Climbing Los Angeles Center
10:42AM 34.9329 -114.2767 223° Southwest  Level FlightAware Approximate
10:42AM 35.1156 -114.0953 221° Southwest 195 224 11,600  Level Los Angeles Center
10:43AM 34.8806 -114.3360 219° Southwest  Level FlightAware Approximate
10:43AM 35.0642 -114.1550 224° Southwest 228 262 13,000  Level Los Angeles Center
10:44AM 34.8255 -114.3913 219° Southwest  Level FlightAware Approximate
10:44AM 35.0025 -114.2172 220° Southwest 239 275 14,700  Level Los Angeles Center
10:45AM 34.7703 -114.4464 219° Southwest  Level FlightAware Approximate
10:46AM 34.9478 -114.2717 219° Southwest 249 287 15,900  Level Los Angeles Center
10:47AM 34.8967 -114.3303 223° Southwest 252 290 17,000 1,080 Climbing Los Angeles Center
10:48AM 34.8508 -114.3972 230° Southwest 256 295 18,100 960 Climbing Los Angeles Center
10:49AM 34.8039 -114.4578 227° Southwest 248 285 19,000 660 Climbing Los Angeles Center
10:50AM 34.7564 -114.5217 228° Southwest 254 292 19,700 420 Climbing Los Angeles Center
10:51AM 34.7678 -114.6258 278° West 261 300 20,000 120 Climbing Los Angeles Center
10:52AM 34.7722 -114.7169 273° West 268 308 20,000  Level Los Angeles Center
10:53AM 34.7736 -114.7906 271° West 271 312 20,000  Level Los Angeles Center
10:54AM 34.7853 -114.9006 277° West 273 314 20,000  Level Los Angeles Center
10:55AM 34.7886 -114.9922 273° West 273 314 20,000  Level Los Angeles Center
10:56AM 34.7886 -115.1003 270° West 266 306 20,000  Level Los Angeles Center
10:57AM 34.7894 -115.1925 271° West 270 311 20,000  Level Los Angeles Center
10:58AM 34.7936 -115.2839 273° West 271 312 20,000  Level Los Angeles Center
10:59AM 34.7969 -115.3922 272° West 268 308 20,000  Level Los Angeles Center
11:00AM 34.7969 -115.4839 270° West 270 311 20,000  Level Los Angeles Center
11:01AM 34.7953 -115.5764 269° West 267 307 20,000  Level Los Angeles Center
11:02AM 34.7914 -115.6678 267° West 270 311 20,000  Level Los Angeles Center
11:03AM 34.7897 -115.7581 269° West 268 308 20,000  Level Los Angeles Center
11:04AM 34.7911 -115.8483 271° West 268 308 20,000  Level Los Angeles Center
11:05AM 34.7892 -115.9394 269° West 269 310 20,000  Level Los Angeles Center
11:06AM 34.7903 -116.0303 271° West 269 310 20,000  Level Los Angeles Center
11:07AM 34.7925 -116.1389 271° West 269 310 20,000  Level Los Angeles Center
11:08AM 34.7942 -116.2278 271° West 265 305 20,000  Level Los Angeles Center
11:09AM 34.7942 -116.3189 270° West 268 308 20,000  Level Los Angeles Center
11:10AM 34.7950 -116.4092 271° West 269 310 20,000  Level Los Angeles Center
11:12AM 34.7983 -116.4994 273° West 267 307 20,000  Level Los Angeles Center
11:13AM 34.7908 -116.5894 264° West 268 308 20,000  Level Los Angeles Center
11:14AM 34.7844 -116.6814 265° West 272 313 20,000  Level Los Angeles Center
11:15AM 34.7781 -116.7900 266° West 270 311 20,000  Level Los Angeles Center
11:16AM 34.7722 -116.8817 266° West 273 314 20,000  Level Los Angeles Center
11:17AM 34.7686 -116.9719 267° West 269 310 20,000  Level Los Angeles Center
11:18AM 34.7619 -117.0628 265° West 270 311 20,000  Level Los Angeles Center
11:19AM 34.7511 -117.1722 263° West 271 312 20,000 -60 Level Los Angeles Center
11:20AM 34.7397 -117.2642 261° West 274 315 19,900 -540 Descending Los Angeles Center
11:21AM 34.7206 -117.3586 256° West 285 328 19,000 -1,080 Descending Los Angeles Center
11:22AM 34.7017 -117.4569 257° West 297 342 17,700 -1,500 Descending Los Angeles Center
11:23AM 34.6908 -117.5744 264° West 292 336 15,900 -1,500 Descending Los Angeles Center
11:24AM 34.6781 -117.6717 261° West 294 338 14,600 -1,320 Descending Los Angeles Center
11:25AM 34.6661 -117.7717 262° West 296 341 13,200 -1,320 Descending Los Angeles Center
11:26AM 34.6547 -117.8747 262° West 306 352 11,900 -1,200 Descending Los Angeles Center
11:27AM 34.6450 -117.9525 261° West 295 339 10,800 -1,200 Descending Los Angeles Center
11:28AM 34.6278 -118.0647 259° West 291 335 9,500 -1,200 Descending Los Angeles Center
11:29AM 34.5836 -118.1489 238° Southwest 271 312 8,400 -780 Descending Los Angeles Center
11:30AM 34.5436 -118.2167 234° Southwest 266 306 8,000 -240 Descending Los Angeles Center
11:31AM 34.4883 -118.2958 230° Southwest 260 299 8,000  Level Los Angeles Center
11:32AM 34.4431 -118.3622 230° Southwest 258 297 8,000  Level Los Angeles Center
11:33AM 34.3894 -118.4169 220° Southwest 276 318 8,000  Level Los Angeles Center
11:34AM 34.3667 -118.4000 148° Southeast 263 303 8,000 -420 Level Southern California TRACON
11:35AM 34.3000 -118.3667 158° South 256 295 7,500 -720 Descending Southern California TRACON
11:35AM 34.2583 -118.3519 164° South 257 296 6,800 -840 Descending Los Angeles Center
11:36AM 34.1933 -118.3147 155° Southeast 258 297 6,000 -420 Descending Los Angeles Center
11:37AM 34.1350 -118.2811 155° Southeast 238 274 6,000 -780 Level Los Angeles Center
11:38AM 34.0717 -118.2417 153° Southeast 218 251 4,500 -1,440 Descending Los Angeles Center
11:40AM 34.0517 -118.1756 110° East 215 247 3,100 -960 Descending Los Angeles Center
11:41AM 34.0086 -118.1464 151° Southeast 206 237 2,600 -300 Descending Los Angeles Center
11:42AM 33.9767 -118.1856 225° Southwest 195 224 2,600  Level Los Angeles Center
11:43AM 33.9697 -118.2344 260° West 188 216 2,600 -420 Level Los Angeles Center
11:44AM 33.9631 -118.3081 264° West 187 215 1,800 -840 Descending Los Angeles Center
11:45AM 33.9575 -118.3600 263° West 170 196 900 -840 Descending Los Angeles Center
11:46AM 33.9511 -118.4139 262° West 146 168 100 -780 Descending Los Angeles Center
11:48AM 33.9425 -118.4081 228° Southwest  Level Estimated
11:55AM 33.9425 -118.4081 228° Southwest  Level Estimated